Time;durP1;ratioP1;P1;durP2;ratioP2;P2;SDS_P1;SDS_P2;PMS_P1;PMS_P2;Temp;Humidity;BMP_temperature;BMP_pressure;BME280_temperature;BME280_humidity;BME280_pressure;Samples;Min_cycle;Max_cycle;Signal;HPM_P1;HPM_P2
2022/10/12 00:02:23;;;;;;;10.30;5.17;;;5.80;99.90;;;;;;5041148;28;20226;-76
2022/10/12 00:04:49;;;;;;;7.80;4.80;;;5.70;99.90;;;;;;5047662;28;20238;-77
2022/10/12 00:07:16;;;;;;;10.53;5.07;;;5.70;99.90;;;;;;5038816;28;20219;-76
2022/10/12 00:09:43;;;;;;;11.23;4.47;;;5.70;99.90;;;;;;5043524;28;20707;-76
2022/10/12 00:12:11;;;;;;;5.47;3.47;;;5.70;99.90;;;;;;5045267;28;20248;-76
2022/10/12 00:14:38;;;;;;;11.97;4.20;;;5.60;99.90;;;;;;5043955;28;20237;-76
2022/10/12 00:17:04;;;;;;;6.43;3.70;;;5.60;99.90;;;;;;5034792;28;20359;-77
2022/10/12 00:19:31;;;;;;;8.67;4.10;;;5.60;99.90;;;;;;5041627;28;20234;-77
2022/10/12 00:21:58;;;;;;;6.83;4.37;;;5.50;99.90;;;;;;5036298;28;20219;-76
2022/10/12 00:24:25;;;;;;;9.07;5.17;;;5.50;99.90;;;;;;5042122;28;20288;-76
2022/10/12 00:26:51;;;;;;;8.83;4.30;;;5.50;99.90;;;;;;5045718;28;20238;-77
2022/10/12 00:29:19;;;;;;;6.23;3.63;;;5.50;99.90;;;;;;5036462;28;20231;-77
2022/10/12 00:31:46;;;;;;;5.10;3.63;;;5.50;99.90;;;;;;5044365;28;20232;-77
2022/10/12 00:34:13;;;;;;;9.07;4.20;;;5.50;99.90;;;;;;5048352;28;20226;-76
2022/10/12 00:36:40;;;;;;;6.37;4.23;;;5.50;99.90;;;;;;5042892;28;20352;-77
2022/10/12 00:39:08;;;;;;;6.57;3.60;;;5.50;99.90;;;;;;5045406;28;20221;-77
2022/10/12 00:41:38;;;;;;;8.20;4.03;;;5.50;99.90;;;;;;5057826;23;20220;-80
2022/10/12 00:44:40;;;;;;;7.83;3.73;;;5.50;99.90;;;;;;5036354;28;20217;-80
2022/10/12 00:47:15;;;;;;;5.20;3.90;;;5.50;99.90;;;;;;5046260;28;20240;-80
2022/10/12 00:49:45;;;;;;;8.63;4.67;;;5.50;99.90;;;;;;5036815;28;20649;-80
2022/10/12 00:52:15;;;;;;;8.43;4.90;;;5.50;99.90;;;;;;5030183;28;20262;-80
2022/10/12 00:54:46;;;;;;;9.93;4.87;;;5.60;99.90;;;;;;5034740;28;20550;-80
2022/10/12 00:57:14;;;;;;;10.90;5.00;;;5.60;99.90;;;;;;5031623;28;20223;-80
2022/10/12 00:59:47;;;;;;;11.70;5.77;;;5.60;99.90;;;;;;5026426;28;20234;-80
2022/10/12 01:02:14;;;;;;;8.80;5.13;;;5.70;99.90;;;;;;5026169;28;20761;-80
2022/10/12 01:04:41;;;;;;;8.50;4.63;;;5.70;99.90;;;;;;5025488;28;20229;-80
2022/10/12 01:07:08;;;;;;;10.27;4.90;;;5.80;99.90;;;;;;5027131;28;20226;-80
2022/10/12 01:09:35;;;;;;;10.77;4.80;;;5.80;99.90;;;;;;5028303;28;20234;-79
2022/10/12 01:12:04;;;;;;;7.10;4.50;;;5.90;99.90;;;;;;5027933;28;20238;-80
2022/10/12 01:14:35;;;;;;;12.47;4.63;;;6.00;99.90;;;;;;5027539;28;20243;-79
2022/10/12 01:17:13;;;;;;;8.20;4.50;;;6.00;99.90;;;;;;5036793;28;20811;-80
2022/10/12 01:20:19;;;;;;;6.60;4.07;;;6.00;99.90;;;;;;5026660;28;20813;-80
2022/10/12 01:22:57;;;;;;;6.50;3.27;;;6.00;99.90;;;;;;4947004;28;20699;-80
2022/10/12 01:25:37;;;;;;;6.43;3.33;;;6.10;99.90;;;;;;5001907;28;20760;-80
2022/10/12 01:28:15;;;;;;;7.20;4.00;;;6.10;99.90;;;;;;5013818;28;20222;-79
2022/10/12 01:30:48;;;;;;;5.53;2.90;;;6.10;99.90;;;;;;5026014;28;20335;-79
2022/10/12 01:33:25;;;;;;;5.33;3.73;;;6.10;99.90;;;;;;5030551;28;20250;-80
2022/10/12 01:35:59;;;;;;;3.93;2.50;;;6.10;99.90;;;;;;5028953;28;20237;-80
2022/10/12 01:38:39;;;;;;;6.40;2.80;;;6.10;99.90;;;;;;5022746;28;20229;-80
2022/10/12 01:41:10;;;;;;;5.13;3.30;;;6.00;99.90;;;;;;5027184;28;20235;-80
2022/10/12 01:43:40;;;;;;;9.07;3.10;;;6.00;99.90;;;;;;5031831;28;20254;-79
2022/10/12 01:46:40;;;;;;;6.90;3.07;;;6.00;99.90;;;;;;5032770;28;20309;-80
2022/10/12 01:49:09;;;;;;;6.27;2.93;;;6.00;99.90;;;;;;5024124;28;20237;-80
2022/10/12 01:51:46;;;;;;;6.23;3.43;;;6.00;99.90;;;;;;5047260;28;20846;-79
2022/10/12 01:54:22;;;;;;;7.73;3.20;;;6.00;99.90;;;;;;5025327;28;20253;-80
2022/10/12 01:56:55;;;;;;;5.57;3.07;;;6.00;99.90;;;;;;5034380;28;20238;-80
2022/10/12 01:59:30;;;;;;;8.30;3.40;;;6.00;99.90;;;;;;5030695;28;20313;-80
2022/10/12 02:02:08;;;;;;;6.70;3.27;;;6.00;99.90;;;;;;5025237;28;20228;-80
2022/10/12 02:04:39;;;;;;;10.43;3.80;;;6.00;99.90;;;;;;5025313;28;20226;-80
2022/10/12 02:07:11;;;;;;;5.93;3.57;;;6.00;99.90;;;;;;5026023;28;20606;-80
2022/10/12 02:09:39;;;;;;;5.80;3.50;;;6.00;99.90;;;;;;5028325;28;20247;-80
2022/10/12 02:12:10;;;;;;;7.33;3.93;;;6.00;99.90;;;;;;5031758;28;20226;-81
2022/10/12 02:14:41;;;;;;;9.47;4.20;;;6.10;99.90;;;;;;5022819;28;20235;-80
2022/10/12 02:17:11;;;;;;;7.43;4.27;;;6.10;99.90;;;;;;5023889;28;20801;-81
2022/10/12 02:19:42;;;;;;;9.10;4.17;;;6.10;99.90;;;;;;5026294;28;20636;-80
2022/10/12 02:22:11;;;;;;;7.93;3.40;;;6.20;99.90;;;;;;5021293;28;20704;-80
2022/10/12 02:24:40;;;;;;;7.67;3.63;;;6.20;99.90;;;;;;5022960;28;20870;-80
2022/10/12 02:27:08;;;;;;;9.33;3.77;;;6.30;99.90;;;;;;5028775;28;20317;-81
2022/10/12 02:29:38;;;;;;;11.23;3.97;;;6.40;99.90;;;;;;5028424;28;20227;-81
2022/10/12 02:32:14;;;;;;;9.07;3.37;;;6.40;99.90;;;;;;5026185;28;20821;-80
2022/10/12 02:34:46;;;;;;;11.60;4.37;;;6.50;99.90;;;;;;5025082;28;20303;-81
2022/10/12 02:37:21;;;;;;;5.90;3.90;;;6.50;99.90;;;;;;5031869;28;20243;-81
2022/10/12 02:39:53;;;;;;;7.67;4.30;;;6.60;99.90;;;;;;5026801;28;20263;-81
2022/10/12 02:42:24;;;;;;;6.37;3.77;;;6.60;99.90;;;;;;5022775;28;20224;-81
2022/10/12 02:44:53;;;;;;;11.00;4.43;;;6.70;99.90;;;;;;5020528;28;20239;-80
2022/10/12 02:47:22;;;;;;;7.50;4.13;;;6.70;99.90;;;;;;5028887;28;20313;-80
2022/10/12 02:49:51;;;;;;;7.63;3.90;;;6.80;99.90;;;;;;5023619;28;20227;-80
2022/10/12 02:52:18;;;;;;;7.53;4.03;;;6.90;99.90;;;;;;5029839;28;20267;-80
2022/10/12 02:54:45;;;;;;;9.57;4.00;;;6.90;99.90;;;;;;5033987;28;20238;-80
2022/10/12 02:57:12;;;;;;;14.63;5.00;;;6.90;99.90;;;;;;5029904;28;20685;-80
2022/10/12 02:59:39;;;;;;;13.50;5.33;;;7.00;99.90;;;;;;5025409;28;20707;-80
2022/10/12 03:02:05;;;;;;;12.70;4.73;;;7.00;99.90;;;;;;5029186;28;20226;-80
2022/10/12 03:04:32;;;;;;;10.17;4.57;;;7.10;99.90;;;;;;5028770;28;20229;-80
2022/10/12 03:07:00;;;;;;;14.77;5.17;;;7.10;99.90;;;;;;5024240;28;20218;-80
2022/10/12 03:09:27;;;;;;;9.90;4.60;;;7.10;99.90;;;;;;5031150;28;20227;-80
2022/10/12 03:11:53;;;;;;;10.77;4.60;;;7.20;99.90;;;;;;5025454;28;20336;-80
2022/10/12 03:14:25;;;;;;;8.67;4.47;;;7.20;99.90;;;;;;5034907;28;20217;-80
2022/10/12 03:16:52;;;;;;;11.63;4.40;;;7.20;99.90;;;;;;5030168;28;20260;-80
2022/10/12 03:19:19;;;;;;;15.17;5.27;;;7.30;99.90;;;;;;5030792;28;20221;-81
2022/10/12 03:21:46;;;;;;;9.40;4.27;;;7.30;99.90;;;;;;5037643;28;20245;-79
2022/10/12 03:24:14;;;;;;;12.97;4.63;;;7.40;99.90;;;;;;5036503;28;20249;-80
2022/10/12 03:26:40;;;;;;;9.53;4.33;;;7.40;99.90;;;;;;5034040;28;20232;-79
2022/10/12 03:29:09;;;;;;;11.20;4.77;;;7.40;99.90;;;;;;5037129;28;21015;-80
2022/10/12 03:31:36;;;;;;;8.97;3.63;;;7.50;99.90;;;;;;5029512;28;20257;-79
2022/10/12 03:34:02;;;;;;;7.93;4.47;;;7.50;99.90;;;;;;5024067;28;20230;-79
2022/10/12 03:36:32;;;;;;;7.47;4.53;;;7.50;99.90;;;;;;5024431;28;20235;-79
2022/10/12 03:38:59;;;;;;;7.47;4.17;;;7.50;99.90;;;;;;5040117;28;20746;-80
2022/10/12 03:41:27;;;;;;;10.73;3.90;;;7.60;99.90;;;;;;5025658;28;20234;-78
2022/10/12 03:43:57;;;;;;;6.33;3.80;;;7.60;99.90;;;;;;5024361;28;20246;-79
2022/10/12 03:46:24;;;;;;;11.43;4.10;;;7.60;99.90;;;;;;5025503;28;20240;-80
2022/10/12 03:48:50;;;;;;;10.23;4.30;;;7.70;99.90;;;;;;5027439;28;20938;-79
2022/10/12 03:51:19;;;;;;;8.07;3.70;;;7.70;99.90;;;;;;5031937;28;20224;-79
2022/10/12 03:53:45;;;;;;;10.53;4.50;;;7.70;99.90;;;;;;5027654;28;20329;-78
2022/10/12 03:56:12;;;;;;;9.10;3.93;;;7.70;99.90;;;;;;5029655;28;20238;-79
2022/10/12 03:58:40;;;;;;;13.73;4.47;;;7.70;99.90;;;;;;5028860;28;20237;-79
2022/10/12 04:01:07;;;;;;;10.20;4.67;;;7.70;99.90;;;;;;5025024;28;20238;-79
2022/10/12 04:03:34;;;;;;;9.87;3.90;;;7.70;99.90;;;;;;5022458;28;20228;-80
2022/10/12 04:06:00;;;;;;;10.10;4.30;;;7.80;99.90;;;;;;5021549;28;20255;-80
2022/10/12 04:08:27;;;;;;;11.70;3.90;;;7.80;99.90;;;;;;5030690;28;20311;-80
2022/10/12 04:10:54;;;;;;;7.27;3.73;;;7.80;99.90;;;;;;5029864;28;20256;-79
2022/10/12 04:13:21;;;;;;;13.43;4.40;;;7.80;99.90;;;;;;5030529;28;20240;-79
2022/10/12 04:15:50;;;;;;;8.47;4.30;;;7.80;99.90;;;;;;5029711;28;20654;-79
2022/10/12 04:18:16;;;;;;;13.40;4.07;;;7.80;99.90;;;;;;5032471;28;20257;-80
2022/10/12 04:20:46;;;;;;;10.00;4.43;;;7.90;99.90;;;;;;5030579;28;20239;-79
2022/10/12 04:23:13;;;;;;;10.50;4.07;;;7.90;99.90;;;;;;5026084;28;20224;-76
2022/10/12 04:25:39;;;;;;;11.57;4.67;;;7.90;99.90;;;;;;5039116;28;20225;-79
2022/10/12 04:28:06;;;;;;;10.27;3.50;;;7.90;99.90;;;;;;5025776;28;20267;-77
2022/10/12 04:30:33;;;;;;;11.43;3.20;;;7.90;99.90;;;;;;5023463;28;20223;-76
2022/10/12 04:33:03;;;;;;;9.43;3.60;;;7.90;99.90;;;;;;5024620;28;20221;-79
2022/10/12 04:35:29;;;;;;;14.93;4.20;;;7.90;99.90;;;;;;5022704;28;20226;-76
2022/10/12 04:37:56;;;;;;;8.20;3.37;;;7.90;99.90;;;;;;5021047;28;20265;-76
2022/10/12 04:40:23;;;;;;;9.33;3.90;;;8.00;99.90;;;;;;5017265;28;20234;-76
2022/10/12 04:42:50;;;;;;;9.97;3.47;;;8.00;99.90;;;;;;5033260;28;20239;-75
2022/10/12 04:45:16;;;;;;;8.87;4.17;;;8.00;99.90;;;;;;5022554;28;20221;-75
2022/10/12 04:47:43;;;;;;;9.50;3.77;;;8.00;99.90;;;;;;5022862;28;20566;-75
2022/10/12 04:50:11;;;;;;;11.40;3.93;;;8.00;99.90;;;;;;5015018;28;20217;-75
2022/10/12 04:52:38;;;;;;;10.43;4.33;;;8.00;99.90;;;;;;5013299;28;20298;-75
2022/10/12 04:55:05;;;;;;;7.23;4.00;;;8.00;99.90;;;;;;5017312;28;20271;-75
2022/10/12 04:57:32;;;;;;;10.50;4.37;;;8.00;99.90;;;;;;5027272;28;20235;-75
2022/10/12 04:59:59;;;;;;;11.97;4.63;;;8.00;99.90;;;;;;5021372;28;20227;-76
2022/10/12 05:02:25;;;;;;;9.10;4.40;;;8.10;99.90;;;;;;5019704;28;20231;-76
2022/10/12 05:04:52;;;;;;;10.03;4.00;;;8.10;99.90;;;;;;5019227;28;20250;-78
2022/10/12 05:07:20;;;;;;;8.40;3.27;;;8.00;99.90;;;;;;5022859;28;20653;-75
2022/10/12 05:09:47;;;;;;;13.03;5.00;;;8.10;99.90;;;;;;5017061;28;20306;-74
2022/10/12 05:12:13;;;;;;;13.30;4.03;;;8.10;99.90;;;;;;5022311;28;20635;-75
2022/10/12 05:14:43;;;;;;;7.27;3.33;;;8.10;99.90;;;;;;5021218;28;20225;-76
2022/10/12 05:17:09;;;;;;;8.57;4.03;;;8.00;99.90;;;;;;5022141;28;20770;-78
2022/10/12 05:19:40;;;;;;;12.57;4.27;;;8.00;99.90;;;;;;5026222;28;20232;-80
2022/10/12 05:22:06;;;;;;;11.10;4.20;;;8.00;99.90;;;;;;5033856;28;20978;-80
2022/10/12 05:24:34;;;;;;;10.63;4.07;;;7.90;99.90;;;;;;5031698;28;20245;-80
2022/10/12 05:27:01;;;;;;;11.93;4.00;;;7.80;99.90;;;;;;5040730;28;20232;-79
2022/10/12 05:29:28;;;;;;;10.73;3.93;;;7.80;99.90;;;;;;5028438;28;20231;-80
2022/10/12 05:31:57;;;;;;;11.13;4.20;;;7.70;99.90;;;;;;5030767;28;20218;-80
2022/10/12 05:34:24;;;;;;;11.70;4.30;;;7.60;99.90;;;;;;5028171;28;22485;-80
2022/10/12 05:36:50;;;;;;;10.00;3.93;;;7.50;99.90;;;;;;5032694;28;20238;-80
2022/10/12 05:39:17;;;;;;;14.37;4.53;;;7.50;99.90;;;;;;5031299;28;20578;-80
2022/10/12 05:41:45;;;;;;;6.43;3.40;;;7.30;99.90;;;;;;5033116;28;20233;-80
2022/10/12 05:44:12;;;;;;;9.87;3.93;;;7.30;99.90;;;;;;5031171;28;20238;-80
2022/10/12 05:46:38;;;;;;;11.47;4.67;;;7.20;99.90;;;;;;5019421;28;20228;-80
2022/10/12 05:49:06;;;;;;;7.30;4.10;;;7.10;99.90;;;;;;5039596;28;20222;-79
2022/10/12 05:51:33;;;;;;;9.60;4.33;;;7.00;99.90;;;;;;5035206;28;20236;-80
2022/10/12 05:54:00;;;;;;;10.93;4.20;;;7.00;99.90;;;;;;5035376;28;20233;-80
2022/10/12 05:56:27;;;;;;;10.73;3.90;;;6.90;99.90;;;;;;5034411;28;20247;-80
2022/10/12 05:58:55;;;;;;;11.30;4.23;;;6.80;99.90;;;;;;5034388;28;20226;-79
2022/10/12 06:01:21;;;;;;;14.13;4.13;;;6.80;99.90;;;;;;5039059;28;20649;-80
2022/10/12 06:03:48;;;;;;;9.73;3.60;;;6.70;99.90;;;;;;5025952;28;20573;-80
2022/10/12 06:06:15;;;;;;;8.63;4.30;;;6.70;99.90;;;;;;5034465;28;20267;-79
2022/10/12 06:08:41;;;;;;;8.70;4.07;;;6.60;99.90;;;;;;5040887;28;20703;-80
2022/10/12 06:11:08;;;;;;;11.60;4.63;;;6.60;99.90;;;;;;5042196;28;20215;-80
2022/10/12 06:13:35;;;;;;;13.10;4.87;;;6.50;99.90;;;;;;5034162;28;20615;-80
2022/10/12 06:16:03;;;;;;;13.47;4.47;;;6.50;99.90;;;;;;5034317;28;20227;-80
2022/10/12 06:18:30;;;;;;;9.53;4.03;;;6.50;99.90;;;;;;5040923;28;20585;-79
2022/10/12 06:20:56;;;;;;;8.87;4.33;;;6.50;99.90;;;;;;5030509;28;20224;-80
2022/10/12 06:23:23;;;;;;;9.07;4.60;;;6.40;99.90;;;;;;5029060;28;20242;-80
2022/10/12 06:25:52;;;;;;;8.10;4.20;;;6.40;99.90;;;;;;5033603;28;20303;-80
2022/10/12 06:28:20;;;;;;;11.20;4.63;;;6.40;99.90;;;;;;5031232;28;20392;-80
2022/10/12 06:30:47;;;;;;;7.93;4.23;;;6.40;99.90;;;;;;5031709;28;20437;-80
2022/10/12 06:33:15;;;;;;;6.67;3.97;;;6.40;99.90;;;;;;5031444;28;20553;-80
2022/10/12 06:35:41;;;;;;;10.17;4.30;;;6.40;99.90;;;;;;5030377;28;20253;-80
2022/10/12 06:38:08;;;;;;;10.83;4.23;;;6.40;99.90;;;;;;5034569;28;20227;-80
2022/10/12 06:40:35;;;;;;;7.80;3.90;;;6.40;99.90;;;;;;5056052;28;20236;-80
2022/10/12 06:43:01;;;;;;;11.20;3.90;;;6.40;99.90;;;;;;5033292;28;20287;-80
2022/10/12 06:45:29;;;;;;;11.97;4.37;;;6.40;99.90;;;;;;5040367;28;20235;-80
2022/10/12 06:47:55;;;;;;;14.70;4.80;;;6.50;99.90;;;;;;5053561;23;20287;-79
2022/10/12 06:50:25;;;;;;;12.03;4.80;;;6.50;99.90;;;;;;5048061;28;20223;-79
2022/10/12 06:52:52;;;;;;;6.50;3.77;;;6.60;99.90;;;;;;5048034;28;20706;-79
2022/10/12 06:55:19;;;;;;;11.67;4.70;;;6.60;99.90;;;;;;5060303;28;20227;-79
2022/10/12 06:57:45;;;;;;;12.50;4.90;;;6.70;99.90;;;;;;5052805;28;20252;-79
2022/10/12 07:00:13;;;;;;;10.00;4.13;;;6.80;99.90;;;;;;5029135;28;20222;-79
2022/10/12 07:02:40;;;;;;;10.67;4.50;;;6.90;99.90;;;;;;5022944;28;20234;-79
2022/10/12 07:05:08;;;;;;;11.30;4.03;;;6.90;99.90;;;;;;5026689;28;20224;-79
2022/10/12 07:07:37;;;;;;;14.80;4.90;;;7.00;99.90;;;;;;5026667;28;20229;-79
2022/10/12 07:10:05;;;;;;;11.63;4.13;;;7.10;99.90;;;;;;5059384;28;20293;-79
2022/10/12 07:12:32;;;;;;;10.53;4.50;;;7.20;99.90;;;;;;5029009;28;20748;-79
2022/10/12 07:14:59;;;;;;;12.50;4.90;;;7.30;99.90;;;;;;5028653;28;20298;-78
2022/10/12 07:17:26;;;;;;;12.37;4.23;;;7.30;99.90;;;;;;5024871;28;20238;-79
2022/10/12 07:19:52;;;;;;;17.93;4.50;;;7.40;99.90;;;;;;5027806;28;20228;-80
2022/10/12 07:22:19;;;;;;;13.17;4.93;;;7.40;99.90;;;;;;5026327;28;20303;-80
2022/10/12 07:24:47;;;;;;;12.17;4.40;;;7.50;99.90;;;;;;5040432;28;20226;-80
2022/10/12 07:27:14;;;;;;;13.33;4.43;;;7.60;99.90;;;;;;5031728;28;20229;-80
2022/10/12 07:29:40;;;;;;;10.27;4.17;;;7.70;99.90;;;;;;5032120;28;20323;-79
2022/10/12 07:32:07;;;;;;;14.77;4.30;;;7.80;99.90;;;;;;5028150;28;20590;-80
2022/10/12 07:34:35;;;;;;;8.80;3.70;;;7.90;99.90;;;;;;5032008;28;20242;-80
2022/10/12 07:37:01;;;;;;;8.90;4.30;;;7.90;99.90;;;;;;5036711;28;20225;-80
2022/10/12 07:39:28;;;;;;;9.87;3.60;;;8.00;99.90;;;;;;5026835;28;20234;-80
2022/10/12 07:41:57;;;;;;;13.97;3.80;;;8.10;99.90;;;;;;5028392;28;20222;-79
2022/10/12 07:44:24;;;;;;;10.07;3.80;;;8.20;99.90;;;;;;5025821;28;20242;-79
2022/10/12 07:46:51;;;;;;;12.13;3.87;;;8.30;99.90;;;;;;5031320;28;20739;-80
2022/10/12 07:49:18;;;;;;;11.33;3.90;;;8.40;99.90;;;;;;5022795;28;20232;-79
2022/10/12 07:51:46;;;;;;;13.53;3.93;;;8.50;99.90;;;;;;5066842;28;20651;-79
2022/10/12 07:54:13;;;;;;;14.33;4.10;;;8.50;99.90;;;;;;5027231;28;20234;-80
2022/10/12 07:56:40;;;;;;;10.60;3.97;;;8.60;99.90;;;;;;5021036;28;20235;-80
2022/10/12 07:59:08;;;;;;;10.27;2.87;;;8.70;99.90;;;;;;5016951;28;20236;-80
2022/10/12 08:01:35;;;;;;;10.13;3.67;;;8.80;99.90;;;;;;5024958;28;20430;-80
2022/10/12 08:04:02;;;;;;;10.80;3.23;;;8.90;99.90;;;;;;5025308;28;20463;-79
2022/10/12 08:06:31;;;;;;;10.27;2.67;;;9.00;99.90;;;;;;5031087;28;20244;-80
2022/10/12 08:08:59;;;;;;;12.13;3.17;;;9.00;99.90;;;;;;5028096;28;20239;-79
2022/10/12 08:11:25;;;;;;;10.40;2.97;;;9.10;99.90;;;;;;5022209;28;20225;-80
2022/10/12 08:13:52;;;;;;;10.10;3.17;;;9.20;99.90;;;;;;5060260;28;20259;-79
2022/10/12 08:16:21;;;;;;;12.10;3.07;;;9.30;99.90;;;;;;5026428;28;20224;-79
2022/10/12 08:18:48;;;;;;;8.07;3.10;;;9.40;99.90;;;;;;5025072;28;20238;-79
2022/10/12 08:21:16;;;;;;;12.80;3.50;;;9.50;99.90;;;;;;5025370;28;20228;-79
2022/10/12 08:23:43;;;;;;;11.60;3.00;;;9.60;99.90;;;;;;5027069;28;20232;-79
2022/10/12 08:26:11;;;;;;;13.07;3.23;;;9.80;99.90;;;;;;5027263;28;20231;-80
2022/10/12 08:28:37;;;;;;;8.10;2.67;;;10.10;99.90;;;;;;5028636;28;20239;-79
2022/10/12 08:31:09;;;;;;;10.27;3.00;;;10.40;99.90;;;;;;5026327;28;20245;-80
2022/10/12 08:33:37;;;;;;;11.57;3.33;;;10.90;99.90;;;;;;5030700;28;20314;-79
2022/10/12 08:36:05;;;;;;;9.77;2.70;;;11.50;99.90;;;;;;5027136;28;20226;-79
2022/10/12 08:38:32;;;;;;;8.93;2.70;;;12.10;99.90;;;;;;5034727;28;20228;-79
2022/10/12 08:41:06;;;;;;;8.20;2.40;;;12.70;99.90;;;;;;5022957;28;20225;-79
2022/10/12 08:43:43;;;;;;;12.53;3.07;;;13.40;99.90;;;;;;5028725;28;20240;-79
2022/10/12 08:46:10;;;;;;;9.47;2.63;;;14.10;99.90;;;;;;5030454;28;20221;-79
2022/10/12 08:48:46;;;;;;;10.77;2.77;;;14.80;99.90;;;;;;5024891;28;20234;-79
2022/10/12 08:51:17;;;;;;;9.10;2.50;;;15.40;99.90;;;;;;5024165;28;20232;-80
2022/10/12 08:53:51;;;;;;;8.57;2.93;;;15.80;99.90;;;;;;5024747;28;20227;-79
2022/10/12 08:56:18;;;;;;;7.87;2.47;;;16.20;99.90;;;;;;5031831;28;20215;-79
2022/10/12 08:58:46;;;;;;;9.63;2.83;;;16.40;99.90;;;;;;5059287;28;20282;-79
2022/10/12 09:01:21;;;;;;;7.83;2.43;;;16.60;99.90;;;;;;5027933;28;20219;-78
2022/10/12 09:04:02;;;;;;;10.83;2.67;;;16.80;99.90;;;;;;5040965;28;20223;-79
2022/10/12 09:06:35;;;;;;;9.30;2.47;;;17.00;99.50;;;;;;5024847;28;20808;-79
2022/10/12 09:09:15;;;;;;;11.70;2.97;;;17.20;97.70;;;;;;5031472;28;20690;-79
2022/10/12 09:12:01;;;;;;;9.17;2.67;;;17.40;97.30;;;;;;5028230;28;20303;-79
2022/10/12 09:14:32;;;;;;;10.20;2.63;;;17.40;96.30;;;;;;5043338;28;20255;-79
2022/10/12 09:17:01;;;;;;;10.30;3.03;;;17.50;96.60;;;;;;5021869;28;20234;-79
2022/10/12 09:19:35;;;;;;;10.83;2.90;;;17.60;97.90;;;;;;5029110;28;20724;-79
2022/10/12 09:22:03;;;;;;;10.17;2.40;;;17.70;97.30;;;;;;5015356;28;20244;-79
2022/10/12 09:24:35;;;;;;;9.87;3.37;;;17.90;96.90;;;;;;5025391;28;20217;-80
2022/10/12 09:27:12;;;;;;;6.63;2.40;;;18.00;95.90;;;;;;5017036;28;20672;-79
2022/10/12 09:29:40;;;;;;;10.90;2.60;;;18.00;95.40;;;;;;5018372;28;20232;-80
2022/10/12 09:32:36;;;;;;;9.73;2.60;;;18.10;96.10;;;;;;5023608;28;20239;-79
2022/10/12 09:35:06;;;;;;;6.77;2.40;;;18.20;94.50;;;;;;5015487;28;20843;-79
2022/10/12 09:37:35;;;;;;;10.13;2.53;;;18.30;95.50;;;;;;5031390;28;20231;-79
2022/10/12 09:40:03;;;;;;;4.93;2.40;;;18.40;94.80;;;;;;5032933;28;20637;-84
2022/10/12 09:42:29;;;;;;;8.13;3.10;;;18.50;95.30;;;;;;5034116;28;20227;-84
2022/10/12 09:45:01;;;;;;;10.77;2.27;;;18.60;94.80;;;;;;5028987;28;20745;-85
2022/10/12 09:47:30;;;;;;;10.87;3.07;;;18.70;94.10;;;;;;5035227;28;20231;-84
2022/10/12 09:50:01;;;;;;;7.90;2.53;;;18.80;94.40;;;;;;5027767;28;20230;-84
2022/10/12 09:52:42;;;;;;;7.77;2.30;;;19.00;95.00;;;;;;5020567;28;20319;-84
2022/10/12 09:55:27;;;;;;;7.87;2.50;;;19.10;92.30;;;;;;5048560;28;20239;-84
2022/10/12 09:57:57;;;;;;;10.03;2.57;;;19.20;91.20;;;;;;5030077;28;20777;-83
2022/10/12 10:00:26;;;;;;;8.47;2.60;;;19.20;91.50;;;;;;5027915;28;20232;-84
2022/10/12 10:02:54;;;;;;;7.40;2.67;;;19.20;92.30;;;;;;5023606;28;20712;-84
2022/10/12 10:05:26;;;;;;;7.63;2.20;;;19.10;91.20;;;;;;5022293;28;20268;-84
2022/10/12 10:08:18;;;;;;;8.23;2.30;;;19.10;92.50;;;;;;5056839;28;20240;-84
2022/10/12 10:10:48;;;;;;;7.83;2.40;;;19.20;91.90;;;;;;5053624;28;20673;-82
2022/10/12 10:13:15;;;;;;;6.53;2.90;;;19.20;91.90;;;;;;5027797;28;20233;-84
2022/10/12 10:15:45;;;;;;;9.07;2.70;;;19.30;91.70;;;;;;5026807;28;20232;-84
2022/10/12 10:18:22;;;;;;;8.23;2.37;;;19.30;90.80;;;;;;5022122;28;20235;-84
2022/10/12 10:20:53;;;;;;;9.00;2.50;;;19.40;91.30;;;;;;5021356;28;20235;-84
2022/10/12 10:23:26;;;;;;;7.73;2.40;;;19.40;90.40;;;;;;5027358;28;20227;-84
2022/10/12 10:25:57;;;;;;;7.27;2.40;;;19.50;90.90;;;;;;5024644;28;20303;-83
2022/10/12 10:28:25;;;;;;;10.40;3.00;;;19.40;88.90;;;;;;5034785;28;20228;-83
2022/10/12 10:31:04;;;;;;;8.77;2.53;;;19.40;89.50;;;;;;5022678;28;20224;-84
2022/10/12 10:33:32;;;;;;;8.47;2.97;;;19.40;89.20;;;;;;5024695;28;20235;-84
2022/10/12 10:36:06;;;;;;;10.13;2.50;;;19.40;88.50;;;;;;5027967;28;20788;-83
2022/10/12 10:38:54;;;;;;;6.43;2.13;;;19.20;88.50;;;;;;5023068;28;20250;-85
2022/10/12 10:41:26;;;;;;;9.53;2.47;;;19.00;84.80;;;;;;5029087;28;20250;-84
2022/10/12 10:43:53;;;;;;;9.33;2.00;;;19.00;89.10;;;;;;5024080;28;20229;-84
2022/10/12 10:46:23;;;;;;;9.50;2.67;;;18.90;89.30;;;;;;5029467;28;20213;-84
2022/10/12 10:48:54;;;;;;;8.20;2.30;;;18.70;87.90;;;;;;5023409;28;20661;-82
2022/10/12 10:51:21;;;;;;;9.87;2.60;;;18.60;88.30;;;;;;5024898;28;20228;-84
2022/10/12 10:53:50;;;;;;;6.80;2.13;;;18.60;90.20;;;;;;5026198;28;20724;-83
2022/10/12 10:56:23;;;;;;;6.07;2.30;;;18.60;90.10;;;;;;5021787;28;20239;-82
2022/10/12 10:58:53;;;;;;;7.90;2.03;;;18.70;89.60;;;;;;5022507;28;20247;-83
2022/10/12 11:01:27;;;;;;;7.20;2.57;;;18.80;90.60;;;;;;5026324;28;20279;-84
2022/10/12 11:03:59;;;;;;;8.63;2.07;;;18.90;90.20;;;;;;5027834;28;20624;-83
2022/10/12 11:06:37;;;;;;;10.10;2.20;;;18.90;86.10;;;;;;5021220;28;20234;-83
2022/10/12 11:09:07;;;;;;;8.33;2.30;;;18.90;87.30;;;;;;5029244;28;20233;-83
2022/10/12 11:11:38;;;;;;;7.67;1.93;;;18.90;83.60;;;;;;5024797;28;20329;-84
2022/10/12 11:14:12;;;;;;;7.60;2.63;;;18.80;85.60;;;;;;5022992;28;20298;-84
2022/10/12 11:16:44;;;;;;;7.57;2.03;;;18.80;88.70;;;;;;5021790;28;20235;-84
2022/10/12 11:19:22;;;;;;;6.87;2.37;;;18.80;87.10;;;;;;5022287;28;20247;-84
2022/10/12 11:21:53;;;;;;;9.03;2.50;;;18.80;86.70;;;;;;5020172;28;20302;-84
2022/10/12 11:24:24;;;;;;;6.47;2.30;;;18.80;88.10;;;;;;5020200;28;20221;-82
2022/10/12 11:26:57;;;;;;;5.63;1.70;;;18.90;87.20;;;;;;5027704;28;20627;-84
2022/10/12 11:29:24;;;;;;;7.27;2.40;;;19.00;86.80;;;;;;5021075;28;20261;-85
2022/10/12 11:31:56;;;;;;;4.25;1.70;;;19.00;86.60;;;;;;5023130;28;20232;-83
2022/10/12 11:34:25;;;;;;;8.40;2.20;;;19.10;86.20;;;;;;5028212;28;20224;-86
2022/10/12 11:36:54;;;;;;;5.37;1.90;;;19.00;84.70;;;;;;5028966;28;20310;-85
2022/10/12 11:39:32;;;;;;;8.23;2.10;;;19.00;84.70;;;;;;5027491;28;20217;-85
2022/10/12 11:42:02;;;;;;;5.47;2.03;;;18.80;82.90;;;;;;5027986;28;20245;-85
2022/10/12 11:44:38;;;;;;;6.70;1.97;;;18.80;86.30;;;;;;5038207;28;20231;-86
2022/10/12 11:47:13;;;;;;;6.30;2.20;;;18.70;82.40;;;;;;5040791;28;20219;-85
2022/10/12 11:49:50;;;;;;;8.17;1.80;;;18.50;83.60;;;;;;5029788;28;20661;-84
2022/10/12 11:52:18;;;;;;;7.07;1.80;;;18.50;84.10;;;;;;5022957;28;20228;-86
2022/10/12 11:54:52;;;;;;;5.57;1.93;;;18.50;85.70;;;;;;5032888;28;20589;-85
2022/10/12 11:57:26;;;;;;;6.18;1.73;;;18.40;82.90;;;;;;5025434;28;20229;-84
2022/10/12 11:59:58;;;;;;;6.00;1.70;;;18.30;84.20;;;;;;5059302;28;20231;-85
2022/10/12 12:02:29;;;;;;;6.63;1.73;;;18.20;83.20;;;;;;5026531;28;20565;-86
2022/10/12 12:04:56;;;;;;;6.03;1.60;;;18.00;81.10;;;;;;5027462;28;20219;-85
2022/10/12 12:07:42;;;;;;;7.87;1.93;;;17.90;83.00;;;;;;5029226;28;20272;-85
2022/10/12 12:10:44;;;;;;;5.67;1.70;;;17.80;82.50;;;;;;5026258;28;20227;-85
2022/10/12 12:13:23;;;;;;;5.47;1.70;;;17.60;82.80;;;;;;5023939;28;20228;-84
2022/10/12 12:16:32;;;;;;;6.30;1.47;;;17.60;84.50;;;;;;5059182;28;20224;-85
2022/10/12 12:19:34;;;;;;;6.07;1.93;;;17.50;82.90;;;;;;5025013;28;20236;-85
2022/10/12 12:22:23;;;;;;;7.07;2.00;;;17.40;83.00;;;;;;5024589;28;20710;-85
2022/10/12 12:25:04;;;;;;;7.00;2.13;;;17.20;82.80;;;;;;5022001;28;20235;-86
2022/10/12 12:27:35;;;;;;;5.37;2.00;;;17.20;83.10;;;;;;5021236;28;20228;-81
2022/10/12 12:30:06;;;;;;;6.40;1.40;;;17.10;84.40;;;;;;5029354;28;20323;-81
2022/10/12 12:32:44;;;;;;;5.37;1.53;;;17.10;85.50;;;;;;5042447;28;20239;-81
2022/10/12 12:35:21;;;;;;;5.90;1.93;;;17.00;84.50;;;;;;5026013;28;20682;-81
2022/10/12 12:37:49;;;;;;;6.87;2.00;;;16.90;84.20;;;;;;5029855;28;20249;-80
2022/10/12 12:40:22;;;;;;;6.73;1.97;;;16.80;84.90;;;;;;5028314;28;20217;-80
2022/10/12 12:42:49;;;;;;;6.37;1.90;;;16.80;86.30;;;;;;5022333;28;20312;-81
2022/10/12 12:45:54;;;;;;;5.80;1.70;;;16.80;86.50;;;;;;5042880;28;20227;-80
2022/10/12 12:48:54;;;;;;;5.00;1.80;;;16.70;85.20;;;;;;5022603;28;20224;-80
2022/10/12 12:51:23;;;;;;;5.87;2.10;;;16.70;86.30;;;;;;5021901;28;20615;-81
2022/10/12 12:53:53;;;;;;;6.50;2.13;;;16.60;86.90;;;;;;5027103;28;20224;-81
2022/10/12 12:56:28;;;;;;;5.50;1.80;;;16.60;87.10;;;;;;5023240;28;20226;-81
2022/10/12 12:59:16;;;;;;;5.97;1.70;;;16.60;88.40;;;;;;5021241;28;20238;-81
2022/10/12 13:02:07;;;;;;;5.80;1.60;;;16.70;89.00;;;;;;5016615;28;20324;-81
2022/10/12 13:05:06;;;;;;;4.90;1.67;;;16.80;86.00;;;;;;5022501;28;20262;-80
2022/10/12 13:07:57;;;;;;;5.33;1.47;;;16.90;84.10;;;;;;5023776;28;20237;-80
2022/10/12 13:10:39;;;;;;;6.80;1.83;;;17.00;85.90;;;;;;5032594;28;20241;-81